createdAt,value
2023-05-02T00:02:31.597Z,98061.16
2023-05-02T00:05:35.116Z,98052.59
2023-05-02T00:08:38.100Z,98046.00
2023-05-02T00:11:40.810Z,98060.09
2023-05-02T00:14:43.631Z,98046.88
2023-05-02T00:17:46.269Z,98050.09
2023-05-02T00:20:49.128Z,98050.97
2023-05-02T00:23:52.297Z,98044.34
2023-05-02T00:26:55.136Z,98046.84
2023-05-02T00:29:58.984Z,98043.41
2023-05-02T00:33:02.110Z,98046.44
2023-05-02T00:36:04.951Z,98048.00
2023-05-02T00:39:08.080Z,98040.97
2023-05-02T00:42:11.380Z,98036.63
2023-05-02T00:45:14.222Z,98039.25
2023-05-02T00:48:18.304Z,98046.44
2023-05-02T00:51:21.108Z,98046.75
2023-05-02T00:54:23.841Z,98045.38
2023-05-02T00:57:26.715Z,98044.03
2023-05-02T01:00:55.915Z,98043.50
2023-05-02T01:04:11.457Z,98046.25
2023-05-02T01:07:29.028Z,98040.47
2023-05-02T01:10:53.512Z,98033.88
2023-05-02T01:13:57.526Z,98049.03
2023-05-02T01:17:04.912Z,98056.22
2023-05-02T01:20:12.630Z,98044.22
2023-05-02T01:23:29.482Z,98048.56
2023-05-02T01:26:53.357Z,98051.84
2023-05-02T01:29:58.391Z,98052.00
2023-05-02T01:33:03.190Z,98044.72
2023-05-02T01:36:06.737Z,98046.09
2023-05-02T01:39:12.320Z,98046.28
2023-05-02T01:42:15.741Z,98037.34
2023-05-02T01:45:20.089Z,98039.28
2023-05-02T01:48:23.799Z,98043.44
2023-05-02T01:51:32.302Z,98035.47
2023-05-02T01:54:35.720Z,98042.94
2023-05-02T01:57:41.209Z,98049.28
2023-05-02T02:00:46.019Z,98043.47
2023-05-02T02:03:48.957Z,98044.84
2023-05-02T02:06:56.400Z,98040.13
2023-05-02T02:09:59.334Z,98037.97
2023-05-02T02:13:08.406Z,98040.69
2023-05-02T02:16:13.452Z,98037.16
2023-05-02T02:19:16.285Z,98044.03
2023-05-02T02:22:20.602Z,98041.84
2023-05-02T02:25:23.820Z,98037.13
2023-05-02T02:28:26.616Z,98039.06
2023-05-02T02:31:36.011Z,98039.59
2023-05-02T02:34:38.859Z,98038.97
2023-05-02T02:37:49.411Z,98038.81
2023-05-02T02:40:55.007Z,98040.31
2023-05-02T02:44:01.876Z,98039.63
2023-05-02T02:47:04.549Z,98041.34
2023-05-02T02:50:41.834Z,98043.50
2023-05-02T02:54:22.996Z,98050.94
2023-05-02T02:57:41.686Z,98050.38
2023-05-02T03:00:45.412Z,98053.16
2023-05-02T03:03:49.449Z,98060.47
2023-05-02T03:06:52.415Z,98054.00
2023-05-02T03:09:55.418Z,98052.91
2023-05-02T03:13:00.344Z,98060.34
2023-05-02T03:16:40.784Z,98051.81
2023-05-02T03:19:48.353Z,98057.88
2023-05-02T03:22:51.329Z,98056.63
2023-05-02T03:25:53.993Z,98060.59
2023-05-02T03:29:00.108Z,98052.91
2023-05-02T03:32:09.583Z,98058.94
2023-05-02T03:35:14.089Z,98060.59
2023-05-02T03:38:20.198Z,98056.78
2023-05-02T03:41:27.928Z,98056.47
2023-05-02T03:44:37.663Z,98061.16
2023-05-02T03:47:40.962Z,98058.81
2023-05-02T03:50:44.223Z,98067.09
2023-05-02T03:53:47.327Z,98061.44
2023-05-02T03:56:50.067Z,98061.16
2023-05-02T04:00:01.230Z,98064.31
2023-05-02T04:03:14.240Z,98061.41
2023-05-02T04:06:20.273Z,98065.25
2023-05-02T04:09:29.241Z,98070.34
2023-05-02T04:12:37.765Z,98077.19
2023-05-02T04:15:41.235Z,98070.72
2023-05-02T04:18:44.676Z,98075.03
2023-05-02T04:21:48.637Z,98077.59
2023-05-02T04:24:52.160Z,98083.25
2023-05-02T04:27:55.090Z,98074.00
2023-05-02T04:31:00.030Z,98074.97
2023-05-02T04:34:04.864Z,98080.72
2023-05-02T04:37:13.020Z,98080.34
2023-05-02T04:40:17.787Z,98075.78
2023-05-02T04:43:24.560Z,98078.88
2023-05-02T04:46:33.097Z,98080.63
2023-05-02T04:49:36.170Z,98078.41
2023-05-02T04:52:39.260Z,98074.91
2023-05-02T04:55:45.416Z,98082.06
2023-05-02T04:58:48.343Z,98086.91
2023-05-02T05:01:51.457Z,98087.84
2023-05-02T05:04:54.538Z,98081.66
2023-05-02T05:07:57.342Z,98089.56
2023-05-02T05:11:02.464Z,98095.38
2023-05-02T05:14:06.075Z,98098.03
2023-05-02T05:17:12.861Z,98100.88
2023-05-02T05:20:16.250Z,98098.38
2023-05-02T05:23:19.500Z,98094.16
2023-05-02T05:26:22.662Z,98088.97
2023-05-02T05:29:25.715Z,98097.22
2023-05-02T05:32:30.360Z,98095.25
2023-05-02T05:35:33.224Z,98103.63
2023-05-02T05:38:38.079Z,98108.06
2023-05-02T05:41:41.814Z,98112.56
2023-05-02T05:44:46.871Z,98116.19
2023-05-02T05:47:51.903Z,98110.19
2023-05-02T05:50:55.124Z,98106.63
2023-05-02T05:53:58.066Z,98106.03
2023-05-02T05:57:01.338Z,98111.81
2023-05-02T06:00:05.113Z,98122.28
2023-05-02T06:03:18.292Z,98121.81
2023-05-02T06:06:22.255Z,98122.88
2023-05-02T06:09:25.116Z,98124.69
2023-05-02T06:12:28.713Z,98133.34
2023-05-02T06:15:34.380Z,98131.63
2023-05-02T06:18:37.780Z,98135.47
2023-05-02T06:21:40.660Z,98130.03
2023-05-02T06:24:43.460Z,98135.84
2023-05-02T06:27:46.295Z,98136.69
2023-05-02T06:30:58.229Z,98138.09
2023-05-02T06:34:00.964Z,98146.47
2023-05-02T06:37:03.811Z,98143.91
2023-05-02T06:40:07.826Z,98144.31
2023-05-02T06:43:10.649Z,98138.16
2023-05-02T06:46:13.413Z,98137.34
2023-05-02T06:49:16.425Z,98147.81
2023-05-02T06:52:19.365Z,98150.06
2023-05-02T06:55:22.523Z,98147.38
2023-05-02T06:58:25.456Z,98151.59
2023-05-02T07:01:28.275Z,98147.38
2023-05-02T07:04:31.690Z,98151.00
2023-05-02T07:07:34.764Z,98149.00
2023-05-02T07:10:37.818Z,98156.47
2023-05-02T07:13:40.713Z,98163.00
2023-05-02T07:16:43.584Z,98158.72
2023-05-02T07:19:46.559Z,98155.72
2023-05-02T07:22:49.432Z,98161.72
2023-05-02T07:25:52.652Z,98161.66
2023-05-02T07:28:55.710Z,98163.66
2023-05-02T07:31:58.584Z,98173.25
2023-05-02T07:35:02.163Z,98172.75
2023-05-02T07:38:05.002Z,98176.59
2023-05-02T07:41:08.208Z,98177.53
2023-05-02T07:44:12.206Z,98178.75
2023-05-02T07:47:15.177Z,98191.25
2023-05-02T07:50:17.965Z,98184.53
2023-05-02T07:53:20.873Z,98188.84
2023-05-02T07:56:25.433Z,98193.66
2023-05-02T07:59:28.210Z,98205.91
2023-05-02T08:02:30.931Z,98199.06
2023-05-02T08:05:33.929Z,98209.53
2023-05-02T08:08:37.645Z,98211.88
2023-05-02T08:11:40.533Z,98206.16
2023-05-02T08:14:44.650Z,98215.22
2023-05-02T08:17:47.718Z,98209.81
2023-05-02T08:20:51.596Z,98212.25
2023-05-02T08:23:58.907Z,98219.50
2023-05-02T08:27:03.817Z,98217.41
2023-05-02T08:30:10.194Z,98224.81
2023-05-02T08:33:14.669Z,98218.63
2023-05-02T08:36:25.057Z,98206.19
2023-05-02T08:39:27.812Z,98216.34
2023-05-02T08:42:34.069Z,98211.84
2023-05-02T08:45:43.300Z,98215.41
2023-05-02T08:48:50.129Z,98221.25
2023-05-02T08:51:53.674Z,98216.41
2023-05-02T08:54:58.823Z,98213.75
2023-05-02T08:58:04.942Z,98200.03
2023-05-02T09:01:23.325Z,98208.53
2023-05-02T09:04:33.637Z,98201.06
2023-05-02T09:07:52.945Z,98206.00
2023-05-02T09:10:58.721Z,98214.34
2023-05-02T09:14:04.711Z,98211.69
2023-05-02T09:17:07.974Z,98211.16
2023-05-02T09:20:16.189Z,98212.81
2023-05-02T09:23:19.212Z,98212.94
2023-05-02T09:26:22.952Z,98211.19
2023-05-02T09:29:28.100Z,98208.66
2023-05-02T09:32:49.089Z,98215.31
2023-05-02T09:35:57.336Z,98220.81
2023-05-02T09:39:13.901Z,98212.28
2023-05-02T09:42:32.240Z,98215.38
2023-05-02T09:45:35.846Z,98209.78
2023-05-02T09:48:58.652Z,98210.09
2023-05-02T09:52:15.680Z,98210.78
2023-05-02T09:55:23.565Z,98212.81
2023-05-02T09:58:26.838Z,98208.22
2023-05-02T10:01:30.703Z,98204.75
2023-05-02T10:04:34.923Z,98212.50
2023-05-02T10:07:41.711Z,98209.63
2023-05-02T10:10:59.056Z,98209.03
2023-05-02T10:14:02.404Z,98209.53
2023-05-02T10:17:30.533Z,98208.22
2023-05-02T10:20:37.646Z,98203.34
2023-05-02T10:23:45.968Z,98207.19
2023-05-02T10:26:48.929Z,98190.63
2023-05-02T10:29:52.361Z,98200.81
2023-05-02T10:32:55.565Z,98199.31
2023-05-02T10:35:59.068Z,98194.47
2023-05-02T10:39:02.280Z,98195.38
2023-05-02T10:42:05.145Z,98193.63
2023-05-02T10:45:32.312Z,98195.16
2023-05-02T10:48:37.448Z,98195.94
2023-05-02T10:51:42.611Z,98204.06
2023-05-02T10:54:45.734Z,98195.91
2023-05-02T10:58:02.751Z,98200.84
2023-05-02T11:01:27.587Z,98194.75
2023-05-02T11:05:06.042Z,98194.75
2023-05-02T11:08:22.985Z,98196.75
2023-05-02T11:11:46.805Z,98188.75
2023-05-02T11:14:50.085Z,98190.19
2023-05-02T11:18:14.830Z,98191.41
2023-05-02T11:21:31.619Z,98187.75
2023-05-02T11:24:41.827Z,98193.31
2023-05-02T11:27:46.606Z,98195.16
2023-05-02T11:30:51.242Z,98193.72
2023-05-02T11:34:04.257Z,98193.72
2023-05-02T11:37:14.885Z,98195.50
2023-05-02T11:40:18.028Z,98192.84
2023-05-02T11:43:22.356Z,98193.50
2023-05-02T11:46:25.232Z,98202.91
2023-05-02T11:49:28.355Z,98199.66
2023-05-02T11:52:41.489Z,98199.47
2023-05-02T11:55:55.895Z,98210.66
2023-05-02T11:59:03.621Z,98200.06
2023-05-02T12:02:07.953Z,98204.53
2023-05-02T12:05:12.654Z,98206.59
2023-05-02T12:08:26.997Z,98202.88
2023-05-02T12:11:30.905Z,98199.97
2023-05-02T12:14:34.147Z,98197.94
2023-05-02T12:17:41.642Z,98203.63
2023-05-02T12:20:45.378Z,98203.66
2023-05-02T12:23:48.174Z,98201.03
2023-05-02T12:26:53.121Z,98203.28
2023-05-02T12:29:57.801Z,98205.47
2023-05-02T12:33:03.299Z,98207.69
2023-05-02T12:36:09.958Z,98196.28
2023-05-02T12:39:13.023Z,98195.81
2023-05-02T12:42:18.531Z,98197.31
2023-05-02T12:45:21.413Z,98191.81
2023-05-02T12:48:28.331Z,98196.31
2023-05-02T12:51:33.186Z,98193.41
2023-05-02T12:54:36.229Z,98195.28
2023-05-02T12:57:39.223Z,98200.25
2023-05-02T13:00:44.813Z,98190.22
2023-05-02T13:03:51.879Z,98194.75
2023-05-02T13:06:55.190Z,98189.63
2023-05-02T13:09:58.103Z,98209.00
2023-05-02T13:13:01.490Z,98191.88
2023-05-02T13:16:04.925Z,98186.03
2023-05-02T13:19:08.698Z,98187.00
2023-05-02T13:22:15.263Z,98194.28
2023-05-02T13:25:18.335Z,98190.22
2023-05-02T13:28:21.211Z,98184.31
2023-05-02T13:31:24.171Z,98179.13
2023-05-02T13:34:27.205Z,98170.31
2023-05-02T13:37:30.223Z,98175.19
2023-05-02T13:40:33.200Z,98180.16
2023-05-02T13:43:36.053Z,98170.44
2023-05-02T13:46:39.389Z,98175.38
2023-05-02T13:49:42.534Z,98167.91
2023-05-02T13:52:47.723Z,98170.44
2023-05-02T13:55:52.015Z,98174.84
2023-05-02T13:58:54.880Z,98171.22
2023-05-02T14:01:57.891Z,98171.53
2023-05-02T14:05:00.771Z,98171.31
2023-05-02T14:08:04.640Z,98167.50
2023-05-02T14:11:07.720Z,98179.84
2023-05-02T14:14:12.813Z,98177.63
2023-05-02T14:17:15.703Z,98177.56
2023-05-02T14:20:18.676Z,98188.31
2023-05-02T14:23:21.950Z,98180.31
2023-05-02T14:26:24.929Z,98179.19
2023-05-02T14:29:27.848Z,98179.78
2023-05-02T14:32:30.930Z,98185.22
2023-05-02T14:35:33.889Z,98177.66
2023-05-02T14:38:37.070Z,98185.19
2023-05-02T14:41:39.997Z,98184.69
2023-05-02T14:44:42.912Z,98185.84
2023-05-02T14:47:46.302Z,98187.06
2023-05-02T14:50:49.342Z,98192.72
2023-05-02T14:53:52.110Z,98187.91
2023-05-02T14:56:54.899Z,98191.41
2023-05-02T14:59:57.987Z,98198.84
2023-05-02T15:03:02.541Z,98202.47
2023-05-02T15:06:06.824Z,98196.50
2023-05-02T15:09:09.873Z,98201.97
2023-05-02T15:12:15.047Z,98217.91
2023-05-02T15:15:20.765Z,98208.59
2023-05-02T15:18:23.775Z,98219.06
2023-05-02T15:21:27.305Z,98209.34
2023-05-02T15:24:31.444Z,98216.53
2023-05-02T15:27:34.452Z,98217.78
2023-05-02T15:30:37.462Z,98221.56
2023-05-02T15:33:40.894Z,98224.91
2023-05-02T15:36:44.093Z,98230.94
2023-05-02T15:39:47.449Z,98221.06
2023-05-02T15:42:50.700Z,98231.94
2023-05-02T15:45:54.514Z,98222.72
2023-05-02T15:48:57.449Z,98221.69
2023-05-02T15:52:01.221Z,98230.22
2023-05-02T15:55:04.720Z,98214.41
2023-05-02T15:58:07.636Z,98221.59
2023-05-02T16:01:10.774Z,98217.63
2023-05-02T16:04:13.784Z,98225.09
2023-05-02T16:07:16.661Z,98228.28
2023-05-02T16:10:19.600Z,98224.53
2023-05-02T16:13:25.296Z,98217.16
2023-05-02T16:16:28.496Z,98225.53
2023-05-02T16:19:31.511Z,98222.06
2023-05-02T16:22:34.511Z,98229.56
2023-05-02T16:25:37.341Z,98229.31
2023-05-02T16:28:40.690Z,98223.44
2023-05-02T16:31:44.939Z,98230.47
2023-05-02T16:34:48.580Z,98237.13
2023-05-02T16:37:51.668Z,98242.84
2023-05-02T16:40:54.471Z,98240.94
2023-05-02T16:43:57.346Z,98243.75
2023-05-02T16:47:00.533Z,98239.63
2023-05-02T16:50:03.919Z,98235.16
2023-05-02T16:53:07.113Z,98239.09
2023-05-02T16:56:10.042Z,98239.44
2023-05-02T16:59:12.871Z,98228.84
2023-05-02T17:02:17.081Z,98234.19
2023-05-02T17:05:21.064Z,98237.28
2023-05-02T17:08:24.195Z,98238.50
2023-05-02T17:11:27.296Z,98238.97
2023-05-02T17:14:30.296Z,98237.84
2023-05-02T17:17:33.414Z,98248.75
2023-05-02T17:20:36.587Z,98249.91
2023-05-02T17:23:40.031Z,98244.63
2023-05-02T17:26:42.693Z,98250.25
2023-05-02T17:29:46.273Z,98247.63
2023-05-02T17:32:49.212Z,98250.81
2023-05-02T17:35:52.917Z,98252.78
2023-05-02T17:38:55.734Z,98259.47
2023-05-02T17:41:58.673Z,98252.88
2023-05-02T17:45:01.489Z,98259.34
2023-05-02T17:48:04.480Z,98261.84
2023-05-02T17:51:07.445Z,98275.53
2023-05-02T17:54:10.203Z,98270.94
2023-05-02T17:57:14.870Z,98271.16
2023-05-02T18:00:19.200Z,98272.81
2023-05-02T18:03:22.373Z,98282.63
2023-05-02T18:06:25.582Z,98282.63
2023-05-02T18:09:28.486Z,98294.97
2023-05-02T18:12:32.658Z,98296.97
2023-05-02T18:15:35.456Z,98314.56
2023-05-02T18:18:38.924Z,98332.53
2023-05-02T18:21:42.580Z,98357.81
2023-05-02T18:24:45.450Z,98373.16
2023-05-02T18:27:48.459Z,98384.56
2023-05-02T18:30:51.303Z,98391.16
2023-05-02T18:33:54.634Z,98390.81
2023-05-02T18:36:59.976Z,98396.28
2023-05-02T18:40:03.580Z,98378.91
2023-05-02T18:43:06.609Z,98384.56
2023-05-02T18:46:09.653Z,98387.72
2023-05-02T18:49:12.761Z,98400.47
2023-05-02T18:52:15.689Z,98406.25
2023-05-02T18:55:19.228Z,98413.28
2023-05-02T18:58:22.911Z,98412.59
2023-05-02T19:01:26.479Z,98423.63
2023-05-02T19:04:32.075Z,98420.66
2023-05-02T19:07:36.279Z,98438.78
2023-05-02T19:10:41.191Z,98444.81
2023-05-02T19:13:43.955Z,98446.13
2023-05-02T19:16:47.283Z,98446.59
2023-05-02T19:19:51.289Z,98457.25
2023-05-02T19:23:07.234Z,98458.91
2023-05-02T19:26:18.193Z,98450.09
2023-05-02T19:29:21.260Z,98453.72
2023-05-02T19:32:25.556Z,98450.53
2023-05-02T19:35:29.201Z,98445.16
2023-05-02T19:38:32.162Z,98450.44
2023-05-02T19:41:34.846Z,98433.94
2023-05-02T19:44:38.010Z,98440.81
2023-05-02T19:47:44.113Z,98442.03
2023-05-02T19:50:47.155Z,98435.13
2023-05-02T19:53:50.005Z,98432.41
2023-05-02T19:56:52.790Z,98444.91
2023-05-02T19:59:56.114Z,98429.72
2023-05-02T20:02:58.909Z,98431.06
2023-05-02T20:06:01.803Z,98434.81
2023-05-02T20:09:04.654Z,98434.66
2023-05-02T20:12:07.695Z,98443.19
2023-05-02T20:15:11.873Z,98445.91
2023-05-02T20:18:15.065Z,98450.88
2023-05-02T20:21:17.870Z,98462.44
2023-05-02T20:24:20.658Z,98478.25
2023-05-02T20:27:23.712Z,98479.88
2023-05-02T20:30:26.553Z,98477.63
2023-05-02T20:33:43.761Z,98478.56
2023-05-02T20:36:47.677Z,98464.03
2023-05-02T20:39:50.671Z,98467.59
2023-05-02T20:42:54.149Z,98461.41
2023-05-02T20:45:57.051Z,98458.06
2023-05-02T20:49:00.013Z,98457.78
2023-05-02T20:52:06.196Z,98463.41
2023-05-02T20:55:09.343Z,98470.56
2023-05-02T20:58:13.306Z,98475.09
2023-05-02T21:01:16.327Z,98482.44
2023-05-02T21:04:19.543Z,98473.66
2023-05-02T21:07:22.675Z,98475.28
2023-05-02T21:10:28.027Z,98471.91
2023-05-02T21:13:30.780Z,98464.75
2023-05-02T21:16:33.597Z,98471.78
2023-05-02T21:19:37.989Z,98463.41
2023-05-02T21:22:42.242Z,98463.06
2023-05-02T21:25:45.052Z,98468.75
2023-05-02T21:28:47.690Z,98472.00
2023-05-02T21:31:51.929Z,98484.13
2023-05-02T21:34:55.998Z,98496.81
2023-05-02T21:37:58.762Z,98505.16
2023-05-02T21:41:03.373Z,98498.81
2023-05-02T21:44:06.276Z,98499.84
2023-05-02T21:47:09.461Z,98497.03
2023-05-02T21:50:12.331Z,98497.72
2023-05-02T21:53:15.140Z,98495.47
2023-05-02T21:56:17.790Z,98497.50
2023-05-02T21:59:20.453Z,98491.53
2023-05-02T22:02:24.038Z,98492.16
2023-05-02T22:05:26.804Z,98498.41
2023-05-02T22:08:29.478Z,98486.50
2023-05-02T22:11:32.458Z,98482.78
2023-05-02T22:14:44.484Z,98477.66
2023-05-02T22:17:48.703Z,98469.91
2023-05-02T22:20:51.423Z,98471.53
2023-05-02T22:23:56.838Z,98467.59
2023-05-02T22:26:59.507Z,98466.97
2023-05-02T22:30:02.706Z,98463.97
2023-05-02T22:33:06.894Z,98460.50
2023-05-02T22:36:09.634Z,98463.13
2023-05-02T22:39:13.682Z,98466.69
2023-05-02T22:42:16.390Z,98475.81
2023-05-02T22:45:19.228Z,98467.91
2023-05-02T22:48:22.037Z,98465.41
2023-05-02T22:51:25.990Z,98471.75
2023-05-02T22:54:28.745Z,98472.22
2023-05-02T22:57:31.838Z,98473.59
2023-05-02T23:00:34.479Z,98476.59
2023-05-02T23:03:37.289Z,98473.59
2023-05-02T23:06:40.034Z,98471.56
2023-05-02T23:09:42.672Z,98474.50
2023-05-02T23:12:45.309Z,98477.03
2023-05-02T23:15:55.645Z,98477.19
2023-05-02T23:18:58.457Z,98475.25
2023-05-02T23:22:03.183Z,98471.25
2023-05-02T23:25:07.398Z,98475.69
2023-05-02T23:28:10.191Z,98467.94
2023-05-02T23:31:13.151Z,98471.69
2023-05-02T23:34:16.158Z,98472.72
2023-05-02T23:37:18.944Z,98464.19
2023-05-02T23:40:21.712Z,98465.59
2023-05-02T23:43:24.559Z,98466.69
2023-05-02T23:46:27.587Z,98468.13
2023-05-02T23:49:30.476Z,98462.25
2023-05-02T23:52:33.752Z,98462.03
2023-05-02T23:55:36.713Z,98454.81
2023-05-02T23:58:39.469Z,98450.69
